createdAt,value
2022-11-25T00:01:22.315Z,6.00
2022-11-25T00:03:49.983Z,6.00
2022-11-25T00:06:20.077Z,6.10
2022-11-25T00:08:49.507Z,6.00
2022-11-25T00:11:17.266Z,6.00
2022-11-25T00:13:45.469Z,5.90
2022-11-25T00:16:15.253Z,5.90
2022-11-25T00:18:47.393Z,6.20
2022-11-25T00:21:16.647Z,5.90
2022-11-25T00:23:44.273Z,5.80
2022-11-25T00:26:16.487Z,5.80
2022-11-25T00:28:45.283Z,5.70
2022-11-25T00:31:14.940Z,5.70
2022-11-25T00:33:42.467Z,5.80
2022-11-25T00:36:33.713Z,5.60
2022-11-25T00:39:06.198Z,5.50
2022-11-25T00:41:52.037Z,5.50
2022-11-25T00:44:36.081Z,5.50
2022-11-25T00:47:30.806Z,5.40
2022-11-25T00:49:57.627Z,5.40
2022-11-25T00:52:27.757Z,5.40
2022-11-25T00:54:54.850Z,5.30
2022-11-25T00:57:23.647Z,5.30
2022-11-25T00:59:50.888Z,5.30
2022-11-25T01:02:19.127Z,5.30
2022-11-25T01:04:47.020Z,5.40
2022-11-25T01:07:14.354Z,5.30
2022-11-25T01:09:41.164Z,5.20
2022-11-25T01:12:08.138Z,5.20
2022-11-25T01:14:35.390Z,5.20
2022-11-25T01:17:02.524Z,5.20
2022-11-25T01:19:29.375Z,5.40
2022-11-25T01:21:56.249Z,5.20
2022-11-25T01:24:24.191Z,5.10
2022-11-25T01:26:51.196Z,5.10
2022-11-25T01:29:19.462Z,5.10
2022-11-25T01:31:47.284Z,5.10
2022-11-25T01:34:15.688Z,5.30
2022-11-25T01:36:43.769Z,5.10
2022-11-25T01:39:20.950Z,5.40
2022-11-25T01:41:48.883Z,5.20
2022-11-25T01:44:19.179Z,5.20
2022-11-25T01:46:59.760Z,5.20
2022-11-25T01:49:36.338Z,5.20
2022-11-25T01:52:09.988Z,5.20
2022-11-25T01:55:05.420Z,5.20
2022-11-25T01:57:39.301Z,5.20
2022-11-25T02:00:09.465Z,5.20
2022-11-25T02:02:36.477Z,5.20
2022-11-25T02:05:08.562Z,5.20
2022-11-25T02:07:38.012Z,5.30
2022-11-25T02:10:13.902Z,5.60
2022-11-25T02:12:43.243Z,5.30
2022-11-25T02:15:10.950Z,5.30
2022-11-25T02:17:38.322Z,5.30
2022-11-25T02:20:10.368Z,5.30
2022-11-25T02:22:39.982Z,5.40
2022-11-25T02:25:16.390Z,5.30
2022-11-25T02:27:46.097Z,5.30
2022-11-25T02:30:13.812Z,5.30
2022-11-25T02:32:45.666Z,5.30
2022-11-25T02:35:26.510Z,5.30
2022-11-25T02:37:56.854Z,5.30
2022-11-25T02:40:24.392Z,5.40
2022-11-25T02:42:52.596Z,5.30
2022-11-25T02:45:26.295Z,5.30
2022-11-25T02:47:53.193Z,5.30
2022-11-25T02:50:20.023Z,5.30
2022-11-25T02:52:46.865Z,5.40
2022-11-25T02:55:13.703Z,5.40
2022-11-25T02:57:40.977Z,5.30
2022-11-25T03:00:08.395Z,5.30
2022-11-25T03:02:35.414Z,5.30
2022-11-25T03:05:02.328Z,5.60
2022-11-25T03:07:29.860Z,5.30
2022-11-25T03:09:57.116Z,5.30
2022-11-25T03:12:24.124Z,5.50
2022-11-25T03:14:51.114Z,5.30
2022-11-25T03:17:18.022Z,5.30
2022-11-25T03:19:44.972Z,5.20
2022-11-25T03:22:11.899Z,5.20
2022-11-25T03:24:39.052Z,5.20
2022-11-25T03:27:06.091Z,5.30
2022-11-25T03:29:33.033Z,5.20
2022-11-25T03:31:59.976Z,5.30
2022-11-25T03:34:26.894Z,5.30
2022-11-25T03:36:53.836Z,5.30
2022-11-25T03:39:20.838Z,5.50
2022-11-25T03:41:47.691Z,5.30
2022-11-25T03:44:14.599Z,5.40
2022-11-25T03:46:41.470Z,5.30
2022-11-25T03:49:08.444Z,5.30
2022-11-25T03:51:35.309Z,5.30
2022-11-25T03:54:02.302Z,5.30
2022-11-25T03:56:29.107Z,5.30
2022-11-25T03:58:56.044Z,5.60
2022-11-25T04:01:22.968Z,5.30
2022-11-25T04:03:50.080Z,5.30
2022-11-25T04:06:19.984Z,5.30
2022-11-25T04:08:47.073Z,5.30
2022-11-25T04:11:13.987Z,5.60
2022-11-25T04:13:40.888Z,5.30
2022-11-25T04:16:16.267Z,5.30
2022-11-25T04:18:43.187Z,5.50
2022-11-25T04:21:10.019Z,5.30
2022-11-25T04:23:36.933Z,5.20
2022-11-25T04:26:03.911Z,5.20
2022-11-25T04:28:30.830Z,5.20
2022-11-25T04:30:58.049Z,5.20
2022-11-25T04:33:24.973Z,5.50
2022-11-25T04:35:51.821Z,5.20
2022-11-25T04:38:18.660Z,5.20
2022-11-25T04:40:45.597Z,5.40
2022-11-25T04:43:12.608Z,5.20
2022-11-25T04:48:29.579Z,5.20
2022-11-25T04:50:56.616Z,5.10
2022-11-25T04:53:23.504Z,5.20
2022-11-25T04:55:50.339Z,5.20
2022-11-25T04:58:37.206Z,5.30
2022-11-25T05:01:04.297Z,5.10
2022-11-25T05:03:31.340Z,5.40
2022-11-25T05:05:58.188Z,5.10
2022-11-25T05:08:25.024Z,5.20
2022-11-25T05:10:51.859Z,5.10
2022-11-25T05:13:18.800Z,5.10
2022-11-25T05:15:46.790Z,5.10
2022-11-25T05:18:13.817Z,5.10
2022-11-25T05:20:40.828Z,5.40
2022-11-25T05:23:08.027Z,5.10
2022-11-25T05:25:35.162Z,5.10
2022-11-25T05:28:02.627Z,5.40
2022-11-25T05:30:29.811Z,5.40
2022-11-25T05:32:56.920Z,5.40
2022-11-25T05:35:24.063Z,4.90
2022-11-25T05:38:04.592Z,5.40
2022-11-25T05:40:32.286Z,5.20
2022-11-25T05:43:01.602Z,5.20
2022-11-25T05:45:28.659Z,5.20
2022-11-25T05:47:55.907Z,5.40
2022-11-25T05:50:23.039Z,5.40
2022-11-25T05:52:50.055Z,5.20
2022-11-25T05:55:17.132Z,5.40
2022-11-25T05:57:44.281Z,5.20
2022-11-25T06:00:11.792Z,5.20
2022-11-25T06:02:38.915Z,5.20
2022-11-25T06:05:06.425Z,5.20
2022-11-25T06:07:33.546Z,5.20
2022-11-25T06:10:03.268Z,5.30
2022-11-25T06:12:30.585Z,5.50
2022-11-25T06:15:01.367Z,5.30
2022-11-25T06:17:28.562Z,5.30
2022-11-25T06:19:55.646Z,5.30
2022-11-25T06:22:23.575Z,5.30
2022-11-25T06:25:00.485Z,5.30
2022-11-25T06:27:50.146Z,5.00
2022-11-25T06:30:18.208Z,5.30
2022-11-25T06:32:45.253Z,5.20
2022-11-25T06:35:12.523Z,5.50
2022-11-25T06:37:40.782Z,5.50
2022-11-25T06:40:11.059Z,5.50
2022-11-25T06:42:39.063Z,5.30
2022-11-25T06:45:06.757Z,5.60
2022-11-25T06:47:33.776Z,5.30
2022-11-25T06:50:00.931Z,5.30
2022-11-25T06:52:31.072Z,5.40
2022-11-25T06:54:58.447Z,5.60
2022-11-25T06:57:28.656Z,5.40
2022-11-25T06:59:56.025Z,5.70
2022-11-25T07:02:23.227Z,5.40
2022-11-25T07:04:50.479Z,5.40
2022-11-25T07:07:17.582Z,5.50
2022-11-25T07:09:44.785Z,5.50
2022-11-25T07:12:12.459Z,5.50
2022-11-25T07:14:39.594Z,5.50
2022-11-25T07:17:12.150Z,5.60
2022-11-25T07:19:40.383Z,5.60
2022-11-25T07:22:07.585Z,5.70
2022-11-25T07:24:35.140Z,5.70
2022-11-25T07:27:04.486Z,5.70
2022-11-25T07:32:18.628Z,5.80
2022-11-25T07:34:45.563Z,6.20
2022-11-25T07:37:12.681Z,6.00
2022-11-25T07:39:39.837Z,6.10
2022-11-25T07:42:07.250Z,6.20
2022-11-25T07:44:34.310Z,6.30
2022-11-25T07:47:01.306Z,6.40
2022-11-25T07:49:28.442Z,6.50
2022-11-25T07:51:59.723Z,6.60
2022-11-25T07:54:27.086Z,6.90
2022-11-25T07:56:54.408Z,6.70
2022-11-25T07:59:22.782Z,7.10
2022-11-25T08:01:51.636Z,6.90
2022-11-25T08:04:20.684Z,7.00
2022-11-25T08:06:50.074Z,7.30
2022-11-25T08:09:19.983Z,7.10
2022-11-25T08:11:47.745Z,7.20
2022-11-25T08:14:17.225Z,7.30
2022-11-25T08:16:44.240Z,7.40
2022-11-25T08:19:14.611Z,7.40
2022-11-25T08:21:44.759Z,7.50
2022-11-25T08:24:27.782Z,7.80
2022-11-25T08:26:56.588Z,7.60
2022-11-25T08:29:28.490Z,7.60
2022-11-25T08:31:55.420Z,7.90
2022-11-25T08:34:26.172Z,7.80
2022-11-25T08:36:53.221Z,7.90
2022-11-25T08:42:13.275Z,8.00
2022-11-25T08:44:40.732Z,8.10
2022-11-25T08:47:11.299Z,8.20
2022-11-25T08:49:41.594Z,8.20
2022-11-25T08:52:09.625Z,8.30
2022-11-25T08:54:36.603Z,8.30
2022-11-25T08:57:06.077Z,8.40
2022-11-25T08:59:32.982Z,8.20
2022-11-25T09:02:00.382Z,8.50
2022-11-25T09:04:27.452Z,8.90
2022-11-25T09:06:54.418Z,8.70
2022-11-25T09:09:24.225Z,8.80
2022-11-25T09:11:51.207Z,9.00
2022-11-25T09:14:18.259Z,9.10
2022-11-25T09:16:45.272Z,9.10
2022-11-25T09:19:12.361Z,9.40
2022-11-25T09:21:39.348Z,9.10
2022-11-25T09:24:06.356Z,9.10
2022-11-25T09:26:35.791Z,9.10
2022-11-25T09:29:03.370Z,9.00
2022-11-25T09:31:30.384Z,9.00
2022-11-25T09:33:57.682Z,9.10
2022-11-25T09:36:24.875Z,8.90
2022-11-25T09:38:52.445Z,8.90
2022-11-25T09:42:00.888Z,8.90
2022-11-25T09:45:20.160Z,8.90
2022-11-25T09:47:57.735Z,8.90
2022-11-25T09:50:31.275Z,8.90
2022-11-25T09:53:33.722Z,8.90
2022-11-25T09:56:04.258Z,9.00
2022-11-25T09:58:44.622Z,9.10
2022-11-25T10:01:20.312Z,9.20
2022-11-25T10:04:05.274Z,9.30
2022-11-25T10:06:50.712Z,9.40
2022-11-25T10:09:26.047Z,9.40
2022-11-25T10:11:55.329Z,9.60
2022-11-25T10:14:30.516Z,9.50
2022-11-25T10:17:09.731Z,9.60
2022-11-25T10:20:01.664Z,9.60
2022-11-25T10:22:35.245Z,9.70
2022-11-25T10:25:21.481Z,9.70
2022-11-25T10:28:01.688Z,9.70
2022-11-25T10:30:48.871Z,9.80
2022-11-25T10:33:27.317Z,9.80
2022-11-25T10:36:06.869Z,9.80
2022-11-25T10:39:07.799Z,9.80
2022-11-25T10:41:50.835Z,9.80
2022-11-25T10:44:27.592Z,9.90
2022-11-25T10:47:42.180Z,9.70
2022-11-25T10:51:22.832Z,10.00
2022-11-25T10:54:11.491Z,10.00
2022-11-25T10:57:18.319Z,9.90
2022-11-25T11:00:37.381Z,9.90
2022-11-25T11:03:27.071Z,9.80
2022-11-25T11:05:55.043Z,10.00
2022-11-25T11:11:29.773Z,10.20
2022-11-25T11:14:13.170Z,10.20
2022-11-25T11:16:52.589Z,10.30
2022-11-25T11:19:26.739Z,10.10
2022-11-25T11:21:54.846Z,10.30
2022-11-25T11:24:35.701Z,10.30
2022-11-25T11:27:25.003Z,10.30
2022-11-25T11:30:16.342Z,10.30
2022-11-25T11:32:56.828Z,10.40
2022-11-25T11:35:48.874Z,10.40
2022-11-25T11:38:39.807Z,10.30
2022-11-25T11:41:47.969Z,10.30
2022-11-25T11:44:21.310Z,10.30
2022-11-25T11:47:28.080Z,10.30
2022-11-25T11:50:46.325Z,10.30
2022-11-25T11:53:23.281Z,10.30
2022-11-25T11:56:33.773Z,10.30
2022-11-25T11:59:18.873Z,10.20
2022-11-25T12:02:17.756Z,10.20
2022-11-25T12:04:53.177Z,10.20
2022-11-25T12:07:47.742Z,10.20
2022-11-25T12:10:14.634Z,10.20
2022-11-25T12:13:17.584Z,10.10
2022-11-25T12:15:59.690Z,10.10
2022-11-25T12:18:54.857Z,10.10
2022-11-25T12:21:47.044Z,10.10
2022-11-25T12:24:22.040Z,10.10
2022-11-25T12:26:49.148Z,10.10
2022-11-25T12:29:25.437Z,10.10
2022-11-25T12:32:07.597Z,10.10
2022-11-25T12:34:45.266Z,10.10
2022-11-25T12:37:32.752Z,10.10
2022-11-25T13:46:39.704Z,10.20
2022-11-25T13:49:21.221Z,10.00
2022-11-25T13:51:54.748Z,10.30
2022-11-25T13:57:17.522Z,10.40
2022-11-25T13:59:44.399Z,10.50
2022-11-25T14:02:45.341Z,10.50
2022-11-25T14:05:45.517Z,10.60
2022-11-25T14:08:35.590Z,10.50
2022-11-25T14:11:14.751Z,10.50
2022-11-25T14:14:03.252Z,10.50
2022-11-25T14:16:39.154Z,10.50
2022-11-25T14:19:50.193Z,10.50
2022-11-25T14:22:42.198Z,10.50
2022-11-25T14:25:12.150Z,10.50
2022-11-25T14:27:44.484Z,10.50
2022-11-25T14:30:11.897Z,10.50
2022-11-25T14:32:59.757Z,10.60
2022-11-25T14:35:32.601Z,10.50
2022-11-25T14:38:19.178Z,10.50
2022-11-25T14:40:58.020Z,10.50
2022-11-25T14:43:27.249Z,10.50
2022-11-25T14:46:20.743Z,10.40
2022-11-25T14:48:54.967Z,10.40
2022-11-25T14:51:23.176Z,10.40
2022-11-25T14:53:51.151Z,10.30
2022-11-25T14:56:34.028Z,10.20
2022-11-25T14:59:01.635Z,10.20
2022-11-25T15:01:29.829Z,10.10
2022-11-25T15:04:15.560Z,10.10
2022-11-25T15:06:49.189Z,10.10
2022-11-25T15:09:27.017Z,10.20
2022-11-25T15:11:59.467Z,10.10
2022-11-25T15:14:35.892Z,10.10
2022-11-25T15:17:08.878Z,10.10
2022-11-25T15:19:37.672Z,10.00
2022-11-25T15:22:22.380Z,10.00
2022-11-25T15:24:55.580Z,10.00
2022-11-25T15:27:28.647Z,10.00
2022-11-25T15:29:57.315Z,10.00
2022-11-25T15:32:37.528Z,10.00
2022-11-25T15:35:07.030Z,10.00
2022-11-25T15:37:33.891Z,9.90
2022-11-25T15:40:39.662Z,10.10
2022-11-25T15:43:20.654Z,9.70
2022-11-25T15:45:50.290Z,10.00
2022-11-25T15:48:31.818Z,10.00
2022-11-25T15:51:06.936Z,10.00
2022-11-25T15:53:37.697Z,10.00
2022-11-25T15:56:06.697Z,10.00
2022-11-25T15:58:33.838Z,10.00
2022-11-25T16:01:03.124Z,10.00
2022-11-25T16:03:32.248Z,10.00
2022-11-25T16:06:00.288Z,10.00
2022-11-25T16:08:36.246Z,10.00
2022-11-25T16:11:20.060Z,10.00
2022-11-25T16:13:48.401Z,10.00
2022-11-25T16:16:16.785Z,10.00
2022-11-25T16:19:02.353Z,10.00
2022-11-25T16:21:35.436Z,10.00
2022-11-25T16:24:05.443Z,10.00
2022-11-25T16:26:32.616Z,9.90
2022-11-25T16:29:01.706Z,9.90
2022-11-25T16:31:28.943Z,9.90
2022-11-25T16:34:15.869Z,10.00
2022-11-25T16:36:43.164Z,10.10
2022-11-25T16:39:10.235Z,9.90
2022-11-25T16:41:38.104Z,10.10
2022-11-25T16:44:12.566Z,9.90
2022-11-25T16:46:39.493Z,9.90
2022-11-25T16:49:15.744Z,9.80
2022-11-25T16:51:42.627Z,9.90
2022-11-25T16:54:09.599Z,9.80
2022-11-25T16:56:39.472Z,9.80
2022-11-25T16:59:06.482Z,9.80
2022-11-25T17:01:34.379Z,9.80
2022-11-25T17:04:05.107Z,9.80
2022-11-25T17:06:32.344Z,9.90
2022-11-25T17:08:59.304Z,9.90
2022-11-25T17:11:36.473Z,9.90
2022-11-25T17:14:07.904Z,9.90
2022-11-25T17:16:35.363Z,9.90
2022-11-25T17:19:02.555Z,10.00
2022-11-25T17:21:29.796Z,10.00
2022-11-25T17:24:05.750Z,10.00
2022-11-25T17:26:41.468Z,10.00
2022-11-25T17:29:14.297Z,10.00
2022-11-25T17:31:42.221Z,10.00
2022-11-25T17:34:16.702Z,10.00
2022-11-25T17:36:45.314Z,10.00
2022-11-25T17:39:13.959Z,10.00
2022-11-25T17:41:51.675Z,10.00
2022-11-25T17:44:30.675Z,10.00
2022-11-25T17:46:58.762Z,10.00
2022-11-25T17:49:26.108Z,10.00
2022-11-25T17:51:53.952Z,10.00
2022-11-25T17:54:20.941Z,10.10
2022-11-25T17:56:52.329Z,9.90
2022-11-25T17:59:26.252Z,9.90
2022-11-25T18:01:55.907Z,9.90
2022-11-25T18:04:24.779Z,9.90
2022-11-25T18:06:52.442Z,9.90
2022-11-25T18:09:19.936Z,9.90
2022-11-25T18:11:50.180Z,9.80
2022-11-25T18:14:32.554Z,9.80
2022-11-25T18:17:05.952Z,9.70
2022-11-25T18:19:33.790Z,9.60
2022-11-25T18:22:11.053Z,9.60
2022-11-25T18:24:43.336Z,9.50
2022-11-25T18:27:24.349Z,9.50
2022-11-25T18:29:55.575Z,9.60
2022-11-25T18:32:23.827Z,9.60
2022-11-25T18:34:51.866Z,9.60
2022-11-25T18:37:18.955Z,9.60
2022-11-25T18:39:46.841Z,9.70
2022-11-25T18:42:27.495Z,9.70
2022-11-25T18:44:55.994Z,9.70
2022-11-25T18:47:23.335Z,9.60
2022-11-25T18:49:55.413Z,9.60
2022-11-25T18:52:24.363Z,9.60
2022-11-25T18:54:51.525Z,9.70
2022-11-25T18:57:18.685Z,9.50
2022-11-25T18:59:48.057Z,9.50
2022-11-25T19:02:23.413Z,9.50
2022-11-25T19:04:50.551Z,9.50
2022-11-25T19:07:17.647Z,9.50
2022-11-25T19:09:44.765Z,9.50
2022-11-25T19:12:17.260Z,9.50
2022-11-25T19:14:44.146Z,9.50
2022-11-25T19:17:24.069Z,9.50
2022-11-25T19:19:50.898Z,9.50
2022-11-25T19:22:18.891Z,9.50
2022-11-25T19:24:46.131Z,9.50
2022-11-25T19:27:23.962Z,9.50
2022-11-25T19:29:52.463Z,9.60
2022-11-25T19:32:28.716Z,9.40
2022-11-25T19:35:02.717Z,9.40
2022-11-25T19:37:32.998Z,9.40
2022-11-25T19:40:02.716Z,9.30
2022-11-25T19:42:31.653Z,9.40
2022-11-25T19:44:58.464Z,9.60
2022-11-25T19:47:26.725Z,9.50
2022-11-25T19:49:58.391Z,9.30
2022-11-25T19:52:35.957Z,9.30
2022-11-25T19:55:14.574Z,9.40
2022-11-25T19:57:42.167Z,9.30
2022-11-25T20:00:09.979Z,9.20
2022-11-25T20:02:37.238Z,9.20
2022-11-25T20:05:05.394Z,9.20
2022-11-25T20:07:32.494Z,9.30
2022-11-25T20:10:16.005Z,9.40
2022-11-25T20:12:43.052Z,9.20
2022-11-25T20:15:10.840Z,9.30
2022-11-25T20:17:39.530Z,9.40
2022-11-25T20:20:15.183Z,9.40
2022-11-25T20:22:49.411Z,9.50
2022-11-25T20:25:16.445Z,9.50
2022-11-25T20:27:43.287Z,9.40
2022-11-25T20:30:21.729Z,9.50
2022-11-25T20:32:48.683Z,9.50
2022-11-25T20:35:15.710Z,9.70
2022-11-25T20:37:57.585Z,9.40
2022-11-25T20:40:40.078Z,9.50
2022-11-25T20:43:21.559Z,9.40
2022-11-25T20:45:48.635Z,9.40
2022-11-25T20:48:17.059Z,9.30
2022-11-25T20:50:44.030Z,9.20
2022-11-25T20:53:15.878Z,9.10
2022-11-25T20:55:43.277Z,9.40
2022-11-25T20:58:32.037Z,9.10
2022-11-25T21:00:59.643Z,9.10
2022-11-25T21:03:27.099Z,9.10
2022-11-25T21:05:55.824Z,9.20
2022-11-25T21:08:27.659Z,9.50
2022-11-25T21:10:56.822Z,9.20
2022-11-25T21:13:29.393Z,9.30
2022-11-25T21:15:57.951Z,9.30
2022-11-25T21:18:25.472Z,9.30
2022-11-25T21:20:55.355Z,9.40
2022-11-25T21:23:23.213Z,9.40
2022-11-25T21:25:50.832Z,9.40
2022-11-25T21:28:21.784Z,9.40
2022-11-25T21:30:49.290Z,9.40
2022-11-25T21:33:16.602Z,9.40
2022-11-25T21:35:46.808Z,9.50
2022-11-25T21:38:17.944Z,9.50
2022-11-25T21:40:47.659Z,9.50
2022-11-25T21:43:22.266Z,9.50
2022-11-25T21:45:52.928Z,9.50
2022-11-25T21:48:21.890Z,9.50
2022-11-25T21:50:49.195Z,9.50
2022-11-25T21:53:17.462Z,9.60
2022-11-25T21:55:44.646Z,9.60
2022-11-25T21:58:18.556Z,9.80
2022-11-25T22:00:53.623Z,9.60
2022-11-25T22:03:22.068Z,9.60
2022-11-25T22:05:49.265Z,9.60
2022-11-25T22:08:16.435Z,9.60
2022-11-25T22:10:47.683Z,9.70
2022-11-25T22:13:27.348Z,9.60
2022-11-25T22:15:56.807Z,9.60
2022-11-25T22:18:33.424Z,9.70
2022-11-25T22:21:00.926Z,9.70
2022-11-25T22:23:28.343Z,9.70
2022-11-25T22:25:55.705Z,9.70
2022-11-25T22:28:28.858Z,9.70
2022-11-25T22:30:58.348Z,9.80
2022-11-25T22:33:33.851Z,9.80
2022-11-25T22:36:01.692Z,9.80
2022-11-25T22:38:30.636Z,10.10
2022-11-25T22:41:06.586Z,9.90
2022-11-25T22:43:39.637Z,9.90
2022-11-25T22:46:07.191Z,9.90
2022-11-25T22:48:36.701Z,9.90
2022-11-25T22:51:04.276Z,9.90
2022-11-25T22:53:31.784Z,9.90
2022-11-25T22:55:58.732Z,10.10
2022-11-25T22:58:27.226Z,9.90
2022-11-25T23:00:56.123Z,9.90
2022-11-25T23:03:34.184Z,9.90
2022-11-25T23:06:03.783Z,9.90
2022-11-25T23:08:31.805Z,10.00
2022-11-25T23:10:59.112Z,10.00
2022-11-25T23:13:26.005Z,10.00
2022-11-25T23:15:56.226Z,9.90
2022-11-25T23:18:38.650Z,9.90
2022-11-25T23:21:20.382Z,9.90
2022-11-25T23:23:48.299Z,9.90
2022-11-25T23:26:15.673Z,9.90
2022-11-25T23:28:42.610Z,9.90
2022-11-25T23:31:14.389Z,9.90
2022-11-25T23:33:46.498Z,9.90
2022-11-25T23:36:24.548Z,9.80
2022-11-25T23:38:57.891Z,9.90
2022-11-25T23:41:34.731Z,10.00
2022-11-25T23:44:12.745Z,9.90
2022-11-25T23:46:40.620Z,9.90
2022-11-25T23:49:22.339Z,10.00
2022-11-25T23:51:49.548Z,9.90
2022-11-25T23:54:20.059Z,9.80
2022-11-25T23:56:47.173Z,9.70
2022-11-25T23:59:15.344Z,9.70
